Skip Navigation Links
NOAA logo - Click to go to the NOAA homepage
NOAA's National Weather Service
Alaska Aviation Weather Unit
  NWS logo - Click to go to the NWS homepage
Left Navbar Graphic     19 AKDT = 03 GMT

   
NOAA is celebrating 200 years of science, service, and stewardship. Visit the NOAA 200th celebration Web site to learn more.
USA.gov is the U.S. Government's official Web portal to all Federal, state and local government Web resources and services.
Facebook
NWS on Facebook

Important Change Regarding the AAWU Web Presence

 

Over the last several months, the AAWU has been working to navigate its webpages to a nationally supported server. Security, as well as other needs, have necessitated the change.  In the process, we have made an effort to enhance the functionality of our website, as well as some of our products. As of June 20, 2017, aawu.arh.noaa.gov will be discontinued. The new AAWU web address is weather.gov/aawu. It is now live and will run in-parallel with the old site until it is discontinued. Please send any feedback or questions regarding the new webpages to nws.ar.aawu.webauthors@noaa.gov.  Thank you for your patience during this time of transition.
AAWU Home :: Display TAF Add Bookmark
TAF PAKW 242340Z 2500/2524 VRB05KT P6SM SCT030
      TEMPO 2500/2504 21010G20KT BKN030
     FM250400 19006KT P6SM BKN030 OVC050
     FM251000 15005KT P6SM FEW007 OVC050
     FM251700 24008KT P6SM OVC050
     FM252100 24010G20KT P6SM OVC050
      AMD LTD TO CLD VIS AND WIND=
METAR PAKW 242153Z AUTO VRB05KT 10SM CLR 14/05 A3024 RMK AO2 SLP240
     T01390050 TSNO=

METAR PAKW 242253Z AUTO 21009G18KT 180V240 10SM CLR 12/05 A3023 RMK AO2
     SLP239 T01220050 TSNO=

METAR PAKW 242353Z AUTO 21007G20KT 10SM CLR 12/05 A3023 RMK AO2 SLP238
     T01170050 10144 20117 56004 TSNO=

METAR PAKW 250053Z AUTO 22008G17KT 8SM CLR 11/06 A3023 RMK AO2
 SLP237 T01110056 TSNO=

METAR PAKW 250153Z AUTO 23007KT 170V280 7SM FEW065 11/06 A3022 RMK AO2
     SLP234 T01060056 TSNO=

METAR PAKW 250253Z AUTO VRB06KT 6SM HZ FEW019 09/06 A3021 RMK AO2
 SLP231 T00940056 58008 TSNO=


NOAA's National Weather Service
Alaska Aviation Weather Unit
6930 Sand Lake Road
Anchorage, AK 99502-1845
Disclaimer
Credits
Glossary
Privacy Policy
About Us
Career Opportunities
Contact AAWU Internet Services Site last modified: April, 17th 2012